Time;durP1;ratioP1;P1;durP2;ratioP2;P2;SDS_P1;SDS_P2;PMS_P1;PMS_P2;Temp;Humidity;BMP_temperature;BMP_pressure;BME280_temperature;BME280_humidity;BME280_pressure;Samples;Min_cycle;Max_cycle;Signal;HPM_P1;HPM_P2
2023/09/22 00:01:17;;;;;;;1.17;0.50;;;19.90;68.60;;;19.12;86.88;94815.94;6092844;23;20057;-70
2023/09/22 00:03:42;;;;;;;1.08;0.50;;;19.70;68.70;;;19.10;86.80;94823.41;6068025;23;20558;-70
2023/09/22 00:06:09;;;;;;;0.55;0.40;;;19.70;68.70;;;19.12;87.29;94828.47;6095913;23;20097;-70
2023/09/22 00:08:34;;;;;;;1.73;0.40;;;19.90;68.50;;;19.08;86.75;94830.88;6091159;23;20160;-70
2023/09/22 00:11:04;;;;;;;0.77;0.40;;;19.90;68.40;;;19.07;87.02;94823.97;6066962;23;20046;-70
2023/09/22 00:13:32;;;;;;;1.20;0.43;;;19.80;68.60;;;19.08;86.92;94832.75;6067556;23;20491;-70
2023/09/22 00:15:58;;;;;;;2.25;0.57;;;19.90;68.70;;;19.05;87.09;94823.44;6067897;23;20710;-70
2023/09/22 00:18:24;;;;;;;1.10;0.52;;;19.80;69.20;;;18.98;88.57;94815.72;6092371;23;20153;-70
2023/09/22 00:20:50;;;;;;;0.70;0.45;;;19.60;69.60;;;18.96;88.02;94807.22;6043008;23;20104;-70
2023/09/22 00:23:15;;;;;;;0.70;0.45;;;19.70;69.50;;;18.94;89.30;94812.00;6044240;23;20112;-70
2023/09/22 00:25:41;;;;;;;0.95;0.50;;;19.70;69.50;;;18.87;88.72;94798.19;6067056;23;20113;-70
2023/09/22 00:28:07;;;;;;;2.10;0.40;;;19.50;69.60;;;18.82;88.68;94808.88;6095646;23;20013;-70
2023/09/22 00:30:33;;;;;;;0.70;0.43;;;19.50;69.60;;;18.79;87.97;94804.09;6093789;23;20044;-70
2023/09/22 00:32:59;;;;;;;1.00;0.57;;;19.50;69.30;;;18.78;88.14;94822.97;6095153;23;20343;-70
2023/09/22 00:35:25;;;;;;;1.08;0.30;;;19.50;69.20;;;18.74;87.92;94822.72;6069007;23;20092;-69
2023/09/22 00:37:51;;;;;;;0.50;0.43;;;19.40;69.00;;;18.72;87.73;94808.88;6044866;23;20069;-69
2023/09/22 00:40:17;;;;;;;1.90;0.40;;;19.40;69.20;;;18.69;87.50;94801.44;6021235;23;20550;-69
2023/09/22 00:42:43;;;;;;;0.70;0.40;;;19.30;69.60;;;18.67;88.99;94790.28;6068722;23;20584;-68
2023/09/22 00:45:09;;;;;;;2.70;0.50;;;19.40;69.70;;;18.64;88.76;94785.50;6092986;23;20663;-68
2023/09/22 00:47:35;;;;;;;1.70;0.40;;;19.30;70.10;;;18.61;89.39;94794.78;6092827;23;20456;-68
2023/09/22 00:50:00;;;;;;;0.65;0.40;;;19.30;70.10;;;18.59;89.90;94786.28;6092986;23;20052;-68
2023/09/22 00:52:27;;;;;;;0.40;0.30;;;19.30;70.20;;;18.58;90.21;94789.22;6044349;23;20021;-69
2023/09/22 00:54:52;;;;;;;0.85;0.40;;;19.30;70.50;;;18.58;90.94;94789.22;6021509;23;20191;-69
2023/09/22 00:57:18;;;;;;;2.75;0.95;;;19.40;70.40;;;18.57;91.50;94803.59;6020644;23;20854;-69
2023/09/22 00:59:47;;;;;;;2.78;0.90;;;19.40;70.70;;;18.56;92.03;94807.31;6092380;23;20041;-68
2023/09/22 01:02:13;;;;;;;1.25;0.75;;;19.40;71.00;;;18.54;92.06;94799.59;6044887;23;20018;-69
2023/09/22 01:04:38;;;;;;;1.02;0.50;;;19.30;70.90;;;18.48;91.93;94789.22;6095491;23;20290;-69
2023/09/22 01:07:04;;;;;;;1.70;0.30;;;19.20;70.70;;;18.43;91.83;94790.03;6045990;23;20297;-69
2023/09/22 01:09:30;;;;;;;1.27;0.60;;;19.10;70.60;;;18.37;92.05;94783.13;6093245;23;20243;-69
2023/09/22 01:11:56;;;;;;;0.40;0.40;;;19.10;70.70;;;18.30;91.63;94783.41;6068465;23;20145;-69
2023/09/22 01:14:21;;;;;;;0.95;0.47;;;18.90;70.90;;;18.21;91.64;94779.69;6094873;23;20030;-69
2023/09/22 01:16:50;;;;;;;0.95;0.40;;;18.80;71.00;;;18.17;90.68;94778.63;6044568;23;20447;-68
2023/09/22 01:19:16;;;;;;;0.75;0.30;;;18.80;70.80;;;18.14;90.48;94783.69;6069833;23;20172;-68
2023/09/22 01:21:46;;;;;;;0.40;0.40;;;18.80;70.00;;;18.11;90.34;94778.91;6046058;23;20456;-69
2023/09/22 01:24:12;;;;;;;0.28;0.20;;;18.90;69.70;;;18.01;89.68;94780.50;6043694;23;20021;-68
2023/09/22 01:26:38;;;;;;;0.95;0.25;;;18.70;69.50;;;17.99;88.84;94781.84;6022482;23;20228;-68
2023/09/22 01:29:05;;;;;;;0.98;0.35;;;18.70;69.40;;;17.98;88.92;94786.38;6047512;23;20028;-69
2023/09/22 01:31:31;;;;;;;0.50;0.40;;;18.70;69.40;;;17.93;87.44;94780.25;6097477;23;20041;-69
2023/09/22 01:33:56;;;;;;;0.63;0.38;;;18.60;68.80;;;17.88;86.93;94790.88;6047341;23;20678;-68
2023/09/22 01:36:22;;;;;;;0.88;0.30;;;18.50;68.70;;;17.82;87.32;94790.09;6097090;23;20049;-68
2023/09/22 01:38:48;;;;;;;1.20;0.40;;;18.50;68.40;;;17.77;85.75;94783.97;6070793;23;20452;-69
2023/09/22 01:41:14;;;;;;;0.73;0.50;;;18.50;68.50;;;17.75;85.89;94778.94;6094865;23;20020;-69
2023/09/22 01:43:40;;;;;;;0.88;0.47;;;18.50;68.40;;;17.72;85.62;94774.13;6094613;23;20034;-68
2023/09/22 01:46:06;;;;;;;0.50;0.40;;;18.50;68.10;;;17.70;85.10;94774.41;6096815;23;20589;-69
2023/09/22 01:48:32;;;;;;;0.38;0.32;;;18.40;67.90;;;17.66;85.53;94778.63;6071291;23;20022;-69
2023/09/22 01:51:05;;;;;;;0.40;0.30;;;18.50;67.60;;;17.64;84.70;94786.06;6022186;23;20032;-68
2023/09/22 01:53:30;;;;;;;0.77;0.40;;;18.40;67.50;;;17.59;84.24;94788.72;6024183;23;20018;-68
2023/09/22 01:55:56;;;;;;;0.52;0.30;;;18.30;67.50;;;17.54;83.76;94801.22;6070336;23;20024;-69
2023/09/22 01:58:22;;;;;;;0.82;0.40;;;18.20;67.40;;;17.52;84.60;94809.44;6070606;23;20020;-69
2023/09/22 02:00:51;;;;;;;0.60;0.30;;;18.20;67.50;;;17.49;84.23;94815.31;6071212;23;20016;-68
2023/09/22 02:03:18;;;;;;;0.57;0.30;;;18.20;67.50;;;17.46;84.68;94821.16;6094663;23;20025;-69
2023/09/22 02:05:43;;;;;;;0.60;0.40;;;18.20;67.50;;;17.42;84.40;94815.53;6070365;23;20033;-69
2023/09/22 02:08:09;;;;;;;1.05;0.40;;;18.20;67.80;;;17.38;85.01;94813.66;6046515;23;20073;-69
2023/09/22 02:10:35;;;;;;;0.30;0.30;;;18.20;67.90;;;17.39;85.67;94804.63;6070655;23;20393;-68
2023/09/22 02:13:01;;;;;;;0.50;0.30;;;18.20;68.30;;;17.35;85.59;94793.72;6095068;23;20017;-69
2023/09/22 02:15:26;;;;;;;0.45;0.40;;;18.20;68.50;;;17.36;85.87;94792.66;6046898;23;20605;-68
2023/09/22 02:17:53;;;;;;;0.70;0.45;;;18.10;68.50;;;17.35;86.19;94795.59;6070121;23;20955;-68
2023/09/22 02:20:22;;;;;;;1.80;0.30;;;18.20;68.60;;;17.36;86.89;94794.53;6046690;23;20018;-69
2023/09/22 02:22:55;;;;;;;0.40;0.30;;;18.20;68.50;;;17.38;87.05;94797.72;6047182;23;20021;-68
2023/09/22 02:25:21;;;;;;;0.70;0.50;;;18.30;68.80;;;17.39;87.09;94801.97;6092872;23;20006;-68
2023/09/22 02:27:48;;;;;;;0.85;0.38;;;18.20;69.20;;;17.37;88.03;94815.53;6070541;23;20511;-68
2023/09/22 02:30:14;;;;;;;0.38;0.30;;;18.20;69.40;;;17.36;87.81;94831.75;6046815;23;20013;-69
2023/09/22 02:32:47;;;;;;;0.82;0.40;;;18.20;69.40;;;17.35;88.26;94840.78;6069750;23;20749;-68
2023/09/22 02:35:13;;;;;;;1.10;0.63;;;18.10;69.70;;;17.34;87.97;94833.88;6048346;23;20116;-68
2023/09/22 02:37:40;;;;;;;0.77;0.43;;;18.20;69.60;;;17.33;88.38;94832.25;6096340;23;20022;-70
2023/09/22 02:40:07;;;;;;;2.10;0.57;;;18.10;69.90;;;17.30;89.25;94827.47;6071026;23;20017;-68
2023/09/22 02:42:33;;;;;;;1.75;0.40;;;18.10;70.30;;;17.30;89.99;94830.13;6094787;23;20025;-68
2023/09/22 02:44:59;;;;;;;0.90;0.40;;;18.10;70.30;;;17.26;90.48;94821.09;6094020;23;20022;-68
2023/09/22 02:47:28;;;;;;;1.77;0.50;;;18.10;70.90;;;17.28;92.12;94824.28;6095461;23;20077;-68
2023/09/22 02:49:55;;;;;;;1.52;0.40;;;18.10;71.40;;;17.26;92.75;94818.44;6069643;23;20206;-69
2023/09/22 02:52:20;;;;;;;0.82;0.43;;;18.10;71.70;;;17.24;92.62;94818.69;6045564;23;20067;-68
2023/09/22 02:54:46;;;;;;;1.20;0.45;;;18.10;72.00;;;17.25;93.53;94832.78;6046688;23;20154;-69
2023/09/22 02:57:12;;;;;;;1.05;0.47;;;18.10;71.90;;;17.21;94.27;94826.41;6070092;23;20133;-68
2023/09/22 02:59:38;;;;;;;0.77;0.50;;;18.00;72.20;;;17.18;94.51;94829.56;6069739;23;20852;-69
2023/09/22 03:02:04;;;;;;;1.00;0.55;;;18.10;72.00;;;17.14;94.61;94835.38;6045405;23;20025;-69
2023/09/22 03:04:33;;;;;;;4.00;0.50;;;18.00;72.40;;;17.12;95.22;94845.47;6094633;23;20214;-69
2023/09/22 03:06:59;;;;;;;1.13;0.65;;;18.00;72.40;;;17.09;94.90;94827.41;6046462;23;20085;-68
2023/09/22 03:09:25;;;;;;;1.88;0.60;;;18.00;72.40;;;17.10;95.18;94834.31;6096755;23;20092;-69
2023/09/22 03:11:50;;;;;;;1.00;0.50;;;18.00;72.40;;;17.09;96.30;94837.25;6093957;23;20034;-68
2023/09/22 03:14:16;;;;;;;0.60;0.40;;;18.10;72.50;;;17.07;95.13;94840.16;6046050;23;20120;-69
2023/09/22 03:16:42;;;;;;;0.93;0.70;;;17.90;71.70;;;17.02;95.24;94844.66;6069444;23;20343;-69
2023/09/22 03:19:09;;;;;;;1.35;0.60;;;17.90;72.30;;;16.97;95.84;94834.78;6096596;23;20010;-69
2023/09/22 03:21:35;;;;;;;2.80;1.15;;;17.90;72.40;;;16.96;95.79;94837.69;6025298;23;20018;-70
2023/09/22 03:24:01;;;;;;;3.63;1.90;;;17.80;72.90;;;16.93;96.18;94849.66;6044029;23;20124;-70
2023/09/22 03:26:26;;;;;;;3.05;1.85;;;17.80;73.00;;;16.89;97.47;94843.25;6095910;23;20112;-71
2023/09/22 03:28:52;;;;;;;11.93;10.07;;;17.70;73.50;;;16.88;98.02;94836.34;6092840;23;20040;-70
2023/09/22 03:31:19;;;;;;;6.25;4.47;;;17.70;74.00;;;16.86;98.26;94843.78;6093906;23;20040;-74
2023/09/22 03:33:46;;;;;;;3.08;2.47;;;17.70;73.80;;;16.76;98.72;94843.75;6070341;23;20006;-67
2023/09/22 03:36:12;;;;;;;2.75;1.92;;;17.50;74.40;;;16.69;99.66;94843.16;6069091;23;20126;-70
2023/09/22 03:38:42;;;;;;;1.67;1.15;;;17.50;74.80;;;16.68;100.00;94839.69;6095372;23;20022;-69
2023/09/22 03:41:07;;;;;;;2.28;1.50;;;17.60;75.40;;;16.65;100.00;94837.53;6045608;23;20022;-68
2023/09/22 03:43:33;;;;;;;2.83;2.00;;;17.60;75.90;;;16.64;100.00;94840.44;6044965;23;20101;-70
2023/09/22 03:45:59;;;;;;;4.15;2.50;;;17.50;75.30;;;16.57;100.00;94842.53;6045714;23;20010;-70
2023/09/22 03:48:25;;;;;;;3.80;2.22;;;17.40;75.40;;;16.50;100.00;94851.50;6045378;23;20290;-71
2023/09/22 03:50:51;;;;;;;3.05;0.60;;;17.30;75.70;;;16.37;100.00;94851.97;6094753;23;20036;-70
2023/09/22 03:53:17;;;;;;;6.80;5.95;;;17.10;76.10;;;16.34;100.00;94863.09;6021291;23;20022;-70
2023/09/22 03:55:45;;;;;;;7.07;6.20;;;17.30;76.50;;;16.31;100.00;94858.31;6069028;23;20126;-70
2023/09/22 03:58:11;;;;;;;5.30;3.50;;;17.20;76.80;;;16.30;100.00;94867.31;6047507;23;20188;-70
2023/09/22 04:00:37;;;;;;;4.88;2.92;;;17.10;76.70;;;16.29;100.00;94859.59;6020983;23;20029;-70
2023/09/22 04:03:09;;;;;;;5.82;4.43;;;17.10;76.80;;;16.27;100.00;94870.47;6045052;23;20814;-70
2023/09/22 04:05:36;;;;;;;1.27;0.90;;;17.10;77.50;;;16.22;100.00;94881.03;6068968;23;20037;-70
2023/09/22 04:08:02;;;;;;;1.05;0.60;;;17.00;77.60;;;16.09;100.00;94886.78;6046445;23;20149;-71
2023/09/22 04:10:27;;;;;;;1.35;0.80;;;16.80;78.10;;;16.09;100.00;94913.31;6069075;23;20021;-69
2023/09/22 04:12:53;;;;;;;1.02;0.70;;;16.80;78.50;;;16.01;100.00;94919.06;6095719;23;20010;-70
2023/09/22 04:15:19;;;;;;;2.70;1.30;;;16.70;78.00;;;15.93;100.00;94905.22;6068964;23;20049;-70
2023/09/22 04:17:48;;;;;;;3.83;1.08;;;16.60;78.40;;;15.84;100.00;94898.78;6045367;23;20018;-72
2023/09/22 04:20:17;;;;;;;1.38;0.85;;;16.60;78.90;;;15.76;100.00;94901.06;6093427;23;20029;-69
2023/09/22 04:22:43;;;;;;;2.65;1.25;;;16.50;79.00;;;15.77;100.00;94916.72;6092947;23;20416;-69
2023/09/22 04:25:18;;;;;;;1.67;1.02;;;16.60;79.40;;;15.74;100.00;94903.97;6067514;23;20013;-70
2023/09/22 04:27:47;;;;;;;1.38;0.60;;;16.60;78.60;;;15.69;100.00;94901.25;6094167;23;20021;-70
2023/09/22 04:30:16;;;;;;;2.35;0.70;;;16.50;78.60;;;15.71;100.00;94901.81;6022864;23;20014;-70
2023/09/22 04:32:43;;;;;;;3.30;1.63;;;16.60;78.80;;;15.72;100.00;94906.06;6046863;23;20084;-70
2023/09/22 04:35:09;;;;;;;2.65;0.73;;;16.60;78.40;;;15.65;100.00;94902.81;6093736;23;20020;-70
2023/09/22 04:37:35;;;;;;;2.50;0.90;;;16.50;78.70;;;15.63;100.00;94907.56;6045688;23;20097;-70
2023/09/22 04:40:23;;;;;;;1.45;0.65;;;16.50;78.50;;;15.60;100.00;94916.00;6071588;23;20013;-69
2023/09/22 04:42:50;;;;;;;1.77;0.70;;;16.50;78.70;;;15.60;100.00;94926.59;6033163;23;20021;-68
2023/09/22 04:45:19;;;;;;;1.35;0.70;;;16.50;78.70;;;15.53;100.00;94920.66;6093266;23;20022;-68
2023/09/22 04:47:47;;;;;;;2.00;0.80;;;16.30;79.10;;;15.52;100.00;94934.97;6046564;23;20409;-70
2023/09/22 04:50:17;;;;;;;1.77;0.70;;;16.30;79.20;;;15.48;100.00;94941.81;6045388;23;20049;-70
2023/09/22 04:52:47;;;;;;;2.03;0.95;;;16.20;79.40;;;15.40;100.00;94932.47;6069979;23;20017;-70
2023/09/22 04:55:13;;;;;;;3.57;0.70;;;16.20;79.60;;;15.38;100.00;94939.03;6071570;23;20060;-69
2023/09/22 04:57:40;;;;;;;1.27;0.77;;;16.20;79.80;;;15.33;100.00;94948.53;6069178;23;20421;-70
2023/09/22 05:00:16;;;;;;;3.53;0.82;;;16.20;80.10;;;15.36;100.00;94951.72;6065161;23;20026;-69
2023/09/22 05:02:45;;;;;;;1.50;0.75;;;16.20;80.10;;;15.32;100.00;94952.22;6047584;23;20013;-72
2023/09/22 05:05:11;;;;;;;2.45;1.00;;;16.30;80.40;;;15.35;100.00;94960.72;6071313;23;20428;-74
2023/09/22 05:07:37;;;;;;;1.67;0.73;;;16.30;80.40;;;15.32;100.00;94952.22;6066445;23;20030;-65
2023/09/22 05:10:04;;;;;;;1.75;0.80;;;16.20;80.40;;;15.33;100.00;94960.97;6072676;23;20499;-65
2023/09/22 05:12:33;;;;;;;4.18;1.40;;;16.20;80.70;;;15.31;100.00;94947.97;6097171;23;20561;-69
2023/09/22 05:15:00;;;;;;;8.98;6.60;;;16.20;80.60;;;15.29;100.00;94952.72;6095617;23;20331;-68
2023/09/22 05:17:27;;;;;;;3.83;3.05;;;16.20;81.00;;;15.28;100.00;94967.00;6073081;23;20116;-68
2023/09/22 05:19:53;;;;;;;4.13;2.42;;;16.20;80.80;;;15.28;100.00;94979.47;6070530;23;20022;-69
2023/09/22 05:22:20;;;;;;;3.20;2.13;;;16.20;80.40;;;15.23;100.00;94985.50;6047253;23;20014;-67
2023/09/22 05:24:47;;;;;;;2.30;1.10;;;16.10;80.70;;;15.25;100.00;94991.34;6069777;23;20085;-71
2023/09/22 05:27:14;;;;;;;1.55;0.80;;;16.20;80.90;;;15.20;100.00;94988.63;6097183;23;20041;-71
2023/09/22 05:29:41;;;;;;;2.42;1.17;;;16.00;81.10;;;15.14;100.00;94992.25;6072382;23;20052;-70
2023/09/22 05:32:08;;;;;;;3.45;1.00;;;16.00;81.40;;;15.14;100.00;94992.25;6066973;23;20559;-66
2023/09/22 05:34:34;;;;;;;3.53;0.70;;;16.10;81.40;;;15.13;100.00;94995.94;6085100;23;20018;-65
2023/09/22 05:37:00;;;;;;;2.10;0.70;;;16.10;80.90;;;15.17;100.00;94996.28;6093696;23;20749;-66
2023/09/22 05:39:26;;;;;;;0.90;0.60;;;16.10;80.70;;;15.13;100.00;95003.09;6068149;23;20093;-65
2023/09/22 05:41:52;;;;;;;1.10;0.52;;;16.10;81.00;;;15.13;100.00;94998.59;6064416;23;20511;-65
2023/09/22 05:44:18;;;;;;;1.45;0.60;;;16.10;80.90;;;15.11;100.00;95013.91;6016343;23;20014;-65
2023/09/22 05:46:44;;;;;;;1.20;0.70;;;16.10;81.20;;;15.13;100.00;95016.31;6064959;23;20029;-66
2023/09/22 05:49:14;;;;;;;1.10;0.70;;;16.10;80.90;;;15.11;100.00;95019.22;6041117;23;20014;-64
2023/09/22 05:51:41;;;;;;;0.73;0.50;;;16.10;80.90;;;15.05;100.00;95030.00;6041383;23;20022;-66
2023/09/22 05:54:07;;;;;;;0.70;0.50;;;15.90;81.00;;;15.01;100.00;95029.69;6064443;23;20109;-65
2023/09/22 05:56:34;;;;;;;1.33;0.65;;;15.90;81.20;;;15.01;100.00;95021.72;6041266;23;20646;-66
2023/09/22 05:59:00;;;;;;;1.95;0.73;;;15.90;81.00;;;14.97;100.00;95025.91;6066567;23;20022;-67
2023/09/22 06:01:27;;;;;;;1.58;0.65;;;15.80;81.70;;;14.94;100.00;95029.06;6040569;23;20169;-65
2023/09/22 06:03:53;;;;;;;1.40;0.50;;;15.80;81.90;;;14.96;100.00;95040.19;6063770;23;20007;-67
2023/09/22 06:06:19;;;;;;;5.13;0.55;;;15.80;81.30;;;14.96;100.00;95032.25;6015104;23;20030;-66
2023/09/22 06:08:45;;;;;;;1.17;0.65;;;15.90;81.60;;;14.98;100.00;95032.81;6037558;23;20018;-67
2023/09/22 06:11:11;;;;;;;2.10;0.70;;;16.00;81.60;;;14.96;100.00;95026.97;6061986;23;20619;-66
2023/09/22 06:13:37;;;;;;;1.90;0.43;;;15.90;81.50;;;14.96;100.00;95037.56;6014907;23;20031;-65
2023/09/22 06:16:04;;;;;;;1.08;0.60;;;15.90;81.60;;;14.96;100.00;95026.97;6040252;23;20009;-66
2023/09/22 06:18:33;;;;;;;2.15;0.55;;;16.00;81.70;;;15.01;100.00;95035.78;6061699;23;20022;-66
2023/09/22 06:21:00;;;;;;;2.20;1.00;;;16.10;81.40;;;15.02;100.00;95033.94;6061523;23;20030;-66
2023/09/22 06:23:27;;;;;;;3.83;1.27;;;16.00;81.60;;;15.01;100.00;95040.28;6035831;23;20027;-66
2023/09/22 06:25:56;;;;;;;2.65;2.03;;;16.10;81.30;;;15.02;100.00;95041.88;6037528;23;20025;-65
2023/09/22 06:28:22;;;;;;;4.80;3.80;;;16.10;80.90;;;15.03;100.00;95043.47;6038535;23;20013;-64
2023/09/22 06:30:48;;;;;;;5.65;4.60;;;16.10;80.70;;;15.04;100.00;95038.97;6039134;23;20165;-64
2023/09/22 06:33:17;;;;;;;1.90;1.27;;;16.10;81.00;;;15.04;100.00;95039.78;6013688;23;20076;-65
2023/09/22 06:35:46;;;;;;;1.65;1.20;;;16.10;80.40;;;15.07;100.00;95036.66;6039783;23;20487;-67
2023/09/22 06:38:13;;;;;;;1.23;0.80;;;16.20;80.30;;;15.08;100.00;95042.75;6015007;23;20029;-66
2023/09/22 06:40:44;;;;;;;1.02;0.73;;;16.10;80.00;;;15.04;100.00;95038.97;6064150;23;20466;-67
2023/09/22 06:43:11;;;;;;;1.42;1.05;;;16.10;80.00;;;14.99;100.00;95047.66;6064571;23;20013;-67
2023/09/22 06:45:37;;;;;;;4.40;1.10;;;16.00;80.20;;;14.99;100.00;95037.06;6062629;23;20371;-67
2023/09/22 06:48:07;;;;;;;2.00;0.93;;;16.10;80.50;;;15.00;100.00;95041.31;6039449;23;20059;-67
2023/09/22 06:50:36;;;;;;;1.90;0.68;;;16.10;80.40;;;14.98;100.00;95035.47;6038555;23;20085;-66
2023/09/22 06:53:02;;;;;;;2.40;0.90;;;16.10;80.50;;;14.99;100.00;95031.78;6061872;23;20126;-67
2023/09/22 06:55:30;;;;;;;1.23;0.70;;;16.20;80.70;;;15.01;100.00;95034.97;6039473;23;20376;-68
2023/09/22 06:57:58;;;;;;;3.13;0.73;;;16.10;79.80;;;14.98;100.00;95032.81;6039360;23;20066;-67
2023/09/22 07:00:28;;;;;;;1.70;0.80;;;16.10;79.80;;;14.95;100.00;95036.75;6063654;23;20482;-67
2023/09/22 07:02:54;;;;;;;2.17;1.00;;;16.10;80.10;;;14.93;100.00;95038.00;6063724;23;20014;-68
2023/09/22 07:05:20;;;;;;;1.20;0.68;;;15.90;79.80;;;14.89;100.00;95043.00;6040547;23;20070;-67
2023/09/22 07:07:46;;;;;;;2.72;0.68;;;15.90;80.30;;;14.85;100.00;95044.53;6063777;23;20113;-69
2023/09/22 07:10:13;;;;;;;1.45;0.60;;;15.80;80.40;;;14.78;100.00;95045.72;6063949;23;20109;-68
2023/09/22 07:12:39;;;;;;;5.85;0.70;;;15.80;80.70;;;14.77;100.00;95052.06;6063913;23;20015;-67
2023/09/22 07:15:06;;;;;;;2.33;0.90;;;15.80;80.80;;;14.73;100.00;95051.75;6064169;23;20145;-68
2023/09/22 07:17:33;;;;;;;2.28;0.90;;;15.80;81.20;;;14.73;100.00;95048.31;6064692;23;20025;-68
2023/09/22 07:20:00;;;;;;;1.33;0.70;;;15.80;80.70;;;14.70;100.00;95055.66;6016350;23;20598;-68
2023/09/22 07:22:27;;;;;;;1.75;0.63;;;15.70;81.00;;;14.67;100.00;95056.13;6039679;23;20014;-68
2023/09/22 07:24:52;;;;;;;1.42;0.70;;;15.70;81.10;;;14.63;100.00;95057.66;6062595;23;20076;-66
2023/09/22 07:27:23;;;;;;;1.45;0.63;;;15.60;81.30;;;14.57;100.00;95055.97;6062638;23;20054;-68
2023/09/22 07:29:50;;;;;;;2.20;0.70;;;15.50;81.40;;;14.56;100.00;95064.97;6064217;23;20201;-67
2023/09/22 07:32:19;;;;;;;1.60;0.60;;;15.60;81.80;;;14.54;100.00;95077.63;6039694;23;20019;-64
2023/09/22 07:34:45;;;;;;;1.77;0.63;;;15.50;81.50;;;14.52;100.00;95073.63;6063957;23;20022;-66
2023/09/22 07:37:12;;;;;;;0.73;0.38;;;15.60;81.30;;;14.55;100.00;95079.25;6040282;23;20014;-65
2023/09/22 07:39:38;;;;;;;1.80;0.70;;;15.60;81.20;;;14.50;100.00;95081.81;6038605;23;20085;-68
2023/09/22 07:42:09;;;;;;;1.42;0.90;;;15.50;81.40;;;14.53;100.00;95081.31;6039779;23;20880;-67
2023/09/22 07:44:37;;;;;;;2.05;0.80;;;15.70;81.60;;;14.56;100.00;95080.84;6041019;23;20015;-68
2023/09/22 07:47:10;;;;;;;0.90;0.60;;;15.80;81.30;;;14.62;100.00;95069.28;6040094;23;20442;-68
2023/09/22 07:49:37;;;;;;;1.00;0.60;;;15.90;80.90;;;14.67;100.00;95065.94;6041422;23;20506;-65
2023/09/22 07:52:04;;;;;;;1.58;0.70;;;16.00;80.80;;;14.75;100.00;95080.63;6041811;23;20109;-65
2023/09/22 07:54:31;;;;;;;3.47;0.88;;;16.10;80.60;;;14.81;100.00;95079.66;6040938;23;20019;-65
2023/09/22 07:56:57;;;;;;;1.92;0.90;;;16.10;80.50;;;14.84;100.00;95087.13;6062909;23;20590;-69
2023/09/22 07:59:22;;;;;;;1.95;1.00;;;16.10;80.50;;;14.87;100.00;95086.63;6015002;23;20030;-69
2023/09/22 08:01:48;;;;;;;3.22;0.90;;;16.10;80.50;;;14.90;100.00;95091.44;6063876;23;20045;-62
2023/09/22 08:04:14;;;;;;;2.58;0.95;;;16.10;80.60;;;14.94;100.00;95104.00;6063730;23;20061;-67
2023/09/22 08:06:39;;;;;;;3.40;0.88;;;16.10;80.50;;;14.97;100.00;95110.66;6063696;23;20050;-66
2023/09/22 08:09:05;;;;;;;2.83;1.10;;;16.30;80.60;;;15.02;100.00;95116.03;6038895;23;20053;-67
2023/09/22 08:11:32;;;;;;;3.15;1.13;;;16.30;80.30;;;15.04;100.00;95124.53;6040393;23;20053;-70
2023/09/22 08:14:01;;;;;;;2.13;1.00;;;16.20;80.30;;;15.07;100.00;95116.09;6040623;23;20124;-68
2023/09/22 08:16:27;;;;;;;4.32;1.05;;;16.30;80.50;;;15.13;100.00;95111.69;6016857;23;20059;-66
2023/09/22 08:18:54;;;;;;;2.53;0.80;;;16.50;80.50;;;15.18;100.00;95107.28;6040721;23;20072;-67
2023/09/22 08:21:21;;;;;;;2.38;0.85;;;16.50;80.40;;;15.26;100.00;95104.22;6040389;23;20017;-67
2023/09/22 08:23:47;;;;;;;1.48;0.80;;;16.70;80.40;;;15.35;100.00;95106.44;6038510;23;20018;-68
2023/09/22 08:26:17;;;;;;;3.45;0.80;;;16.80;79.20;;;15.39;100.00;95096.97;6039956;23;20194;-66
2023/09/22 08:28:47;;;;;;;2.10;0.70;;;16.70;79.60;;;15.46;100.00;95094.97;6063374;23;20657;-68
2023/09/22 08:31:13;;;;;;;1.70;0.65;;;16.90;79.40;;;15.52;100.00;95096.63;6063816;23;20014;-66
2023/09/22 08:33:39;;;;;;;2.20;1.10;;;17.00;79.50;;;15.58;100.00;95088.53;6039757;23;20026;-66
2023/09/22 08:36:05;;;;;;;2.00;0.77;;;17.00;79.10;;;15.66;100.00;95089.97;6040230;23;20018;-68
2023/09/22 08:38:32;;;;;;;2.30;1.10;;;17.10;79.20;;;15.72;100.00;95094.28;6038145;23;20620;-65
2023/09/22 08:41:04;;;;;;;2.13;0.90;;;17.10;78.60;;;15.76;100.00;95108.66;6040217;23;20922;-66
2023/09/22 08:43:32;;;;;;;3.17;1.00;;;17.10;78.70;;;15.78;100.00;95113.72;6041041;23;20006;-66
2023/09/22 08:45:59;;;;;;;1.45;0.90;;;17.20;78.30;;;15.80;100.00;95125.66;6043035;23;20009;-67
2023/09/22 08:48:25;;;;;;;1.90;1.10;;;17.10;78.20;;;15.81;100.00;95127.28;6065382;23;20463;-67
2023/09/22 08:50:51;;;;;;;3.88;1.23;;;17.10;78.60;;;15.84;100.00;95124.16;6042059;23;20018;-68
2023/09/22 08:53:17;;;;;;;1.90;0.98;;;17.20;79.00;;;15.87;100.00;95122.88;6065362;23;20101;-67
2023/09/22 08:55:43;;;;;;;2.28;1.00;;;17.20;78.30;;;15.86;100.00;95124.72;6018039;23;20014;-66
2023/09/22 08:58:09;;;;;;;1.23;0.80;;;17.10;78.40;;;15.87;100.00;95125.50;6065868;23;20334;-67
2023/09/22 09:00:35;;;;;;;2.58;0.80;;;17.10;78.90;;;15.86;100.00;95126.56;6065155;23;20296;-68
2023/09/22 09:03:09;;;;;;;2.15;0.90;;;17.00;77.90;;;15.81;100.00;95135.22;6065477;23;20014;-67
2023/09/22 09:05:36;;;;;;;2.08;1.00;;;16.90;78.30;;;15.79;100.00;95137.31;6065498;23;20621;-67
2023/09/22 09:08:18;;;;;;;4.38;1.50;;;17.00;78.80;;;15.80;100.00;95143.44;6016787;23;20121;-68
2023/09/22 09:10:46;;;;;;;2.35;1.00;;;17.00;79.20;;;15.76;100.00;95153.72;6042498;23;20023;-67
2023/09/22 09:13:20;;;;;;;4.60;1.02;;;16.90;79.00;;;15.74;100.00;95155.81;6041920;23;20339;-69
2023/09/22 09:15:53;;;;;;;3.72;1.30;;;16.90;79.10;;;15.71;100.00;95151.00;6018280;23;20014;-67
2023/09/22 09:18:24;;;;;;;3.35;1.20;;;16.90;79.50;;;15.69;100.00;95145.16;6042164;23;20100;-68
2023/09/22 09:21:09;;;;;;;1.80;1.00;;;16.80;79.30;;;15.69;100.00;95147.81;6064403;23;20022;-69
2023/09/22 09:23:35;;;;;;;2.92;0.93;;;16.90;78.60;;;15.67;100.00;95144.59;6014697;23;20041;-66
2023/09/22 09:26:01;;;;;;;1.40;0.88;;;17.00;79.00;;;15.70;100.00;95135.34;6015657;23;20129;-67
2023/09/22 09:28:28;;;;;;;2.42;0.93;;;16.90;79.40;;;15.72;100.00;95142.00;6015347;23;20014;-67
2023/09/22 09:30:58;;;;;;;5.43;1.05;;;17.10;79.60;;;15.73;100.00;95143.63;6064973;23;20303;-67
2023/09/22 09:33:31;;;;;;;1.38;0.90;;;17.10;78.60;;;15.75;100.00;95146.81;6041643;23;20102;-67
2023/09/22 09:35:57;;;;;;;3.58;1.05;;;17.00;79.10;;;15.77;100.00;95139.41;6041492;23;20272;-67
2023/09/22 09:38:28;;;;;;;3.55;1.00;;;17.10;79.00;;;15.85;100.00;95141.66;6038898;23;20149;-66
2023/09/22 09:40:59;;;;;;;1.77;0.75;;;17.30;79.20;;;15.92;100.00;95136.19;6017843;23;20776;-68
2023/09/22 09:43:25;;;;;;;2.65;1.00;;;17.40;79.20;;;15.97;100.00;95133.59;6065539;23;20010;-68
2023/09/22 09:45:57;;;;;;;5.13;1.23;;;17.50;78.60;;;16.00;100.00;95126.97;6042455;23;20014;-68
2023/09/22 09:48:23;;;;;;;2.22;0.93;;;17.60;78.10;;;16.04;100.00;95130.75;6041680;23;20025;-68
2023/09/22 09:50:52;;;;;;;3.15;1.13;;;17.50;77.80;;;16.03;100.00;95131.78;6041988;23;20073;-67
2023/09/22 09:53:42;;;;;;;2.92;1.08;;;17.40;78.60;;;16.03;100.00;95126.50;6065568;23;20440;-69
2023/09/22 09:56:09;;;;;;;3.60;1.08;;;17.40;78.20;;;16.01;100.00;95126.75;6067104;23;20486;-68
2023/09/22 09:58:35;;;;;;;2.10;0.93;;;17.40;78.50;;;16.03;100.00;95129.94;6017197;23;20624;-68
2023/09/22 10:01:07;;;;;;;4.47;1.02;;;17.30;78.00;;;16.03;100.00;95131.78;6041954;23;20050;-66
2023/09/22 10:03:35;;;;;;;3.20;1.10;;;17.20;78.80;;;16.04;100.00;95136.84;6064143;23;20018;-66
2023/09/22 10:06:03;;;;;;;4.30;1.27;;;17.40;78.80;;;16.00;100.00;95137.59;6017902;23;20018;-70
2023/09/22 10:08:29;;;;;;;3.10;1.30;;;17.20;78.80;;;15.95;100.00;95142.84;6039642;23;20022;-70
2023/09/22 10:10:59;;;;;;;2.83;1.05;;;17.10;78.90;;;15.89;100.00;95136.69;6041675;23;20593;-69
2023/09/22 10:13:25;;;;;;;3.50;1.13;;;17.10;79.30;;;15.88;100.00;95151.78;6040671;23;20018;-71
2023/09/22 10:16:04;;;;;;;2.95;0.90;;;17.10;79.60;;;15.87;100.00;95157.34;6042655;23;20022;-71